sensor_id;sensor_type;location;lat;lon;timestamp;temperature;humidity
10911;DHT22;5508;49.150;11.030;2023-08-06T00:00:03;13.50;99.90
10911;DHT22;5508;49.150;11.030;2023-08-06T00:03:04;13.50;99.90
10911;DHT22;5508;49.150;11.030;2023-08-06T00:06:05;13.40;99.90
10911;DHT22;5508;49.150;11.030;2023-08-06T00:09:06;13.40;99.90
10911;DHT22;5508;49.150;11.030;2023-08-06T00:12:07;13.40;99.90
10911;DHT22;5508;49.150;11.030;2023-08-06T00:15:08;13.40;99.90
10911;DHT22;5508;49.150;11.030;2023-08-06T00:18:09;13.40;99.90
10911;DHT22;5508;49.150;11.030;2023-08-06T00:21:09;13.40;99.90
10911;DHT22;5508;49.150;11.030;2023-08-06T00:24:12;13.40;99.90
10911;DHT22;5508;49.150;11.030;2023-08-06T00:27:13;13.40;99.90
10911;DHT22;5508;49.150;11.030;2023-08-06T00:30:13;13.40;99.90
10911;DHT22;5508;49.150;11.030;2023-08-06T00:33:14;13.30;99.90
10911;DHT22;5508;49.150;11.030;2023-08-06T00:36:14;13.30;99.90
10911;DHT22;5508;49.150;11.030;2023-08-06T00:39:15;13.30;99.90
10911;DHT22;5508;49.150;11.030;2023-08-06T00:42:16;13.30;99.90
10911;DHT22;5508;49.150;11.030;2023-08-06T00:45:21;13.30;99.90
10911;DHT22;5508;49.150;11.030;2023-08-06T00:48:22;13.30;99.90
10911;DHT22;5508;49.150;11.030;2023-08-06T00:51:24;13.30;99.90
10911;DHT22;5508;49.150;11.030;2023-08-06T00:54:25;13.30;99.90
10911;DHT22;5508;49.150;11.030;2023-08-06T00:57:26;13.20;99.90
10911;DHT22;5508;49.150;11.030;2023-08-06T01:00:27;13.20;99.90
10911;DHT22;5508;49.150;11.030;2023-08-06T01:03:28;13.20;99.90
10911;DHT22;5508;49.150;11.030;2023-08-06T01:06:45;13.20;99.90
10911;DHT22;5508;49.150;11.030;2023-08-06T01:10:12;13.10;99.90
10911;DHT22;5508;49.150;11.030;2023-08-06T01:13:46;13.10;99.90
10911;DHT22;5508;49.150;11.030;2023-08-06T01:16:50;13.30;99.90
10911;DHT22;5508;49.150;11.030;2023-08-06T01:19:51;13.20;99.90
10911;DHT22;5508;49.150;11.030;2023-08-06T01:22:52;13.10;99.90
10911;DHT22;5508;49.150;11.030;2023-08-06T01:29:23;13.20;99.90
10911;DHT22;5508;49.150;11.030;2023-08-06T01:32:26;13.10;99.90
10911;DHT22;5508;49.150;11.030;2023-08-06T01:35:29;13.10;99.90
10911;DHT22;5508;49.150;11.030;2023-08-06T01:38:30;13.20;99.90
10911;DHT22;5508;49.150;11.030;2023-08-06T01:41:30;13.10;99.90
10911;DHT22;5508;49.150;11.030;2023-08-06T01:44:31;13.10;99.90
10911;DHT22;5508;49.150;11.030;2023-08-06T01:47:32;13.10;99.90
10911;DHT22;5508;49.150;11.030;2023-08-06T01:50:32;13.00;99.90
10911;DHT22;5508;49.150;11.030;2023-08-06T01:53:33;13.00;99.90
10911;DHT22;5508;49.150;11.030;2023-08-06T01:56:34;13.10;99.90
10911;DHT22;5508;49.150;11.030;2023-08-06T01:59:35;13.10;99.90
10911;DHT22;5508;49.150;11.030;2023-08-06T02:02:35;13.10;99.90
10911;DHT22;5508;49.150;11.030;2023-08-06T02:05:36;13.10;99.90
10911;DHT22;5508;49.150;11.030;2023-08-06T02:08:36;13.10;99.90
10911;DHT22;5508;49.150;11.030;2023-08-06T02:11:37;13.00;99.90
10911;DHT22;5508;49.150;11.030;2023-08-06T02:14:37;13.00;99.90
10911;DHT22;5508;49.150;11.030;2023-08-06T02:17:38;13.00;99.90
10911;DHT22;5508;49.150;11.030;2023-08-06T02:20:39;13.00;99.90
10911;DHT22;5508;49.150;11.030;2023-08-06T02:23:39;13.00;99.90
10911;DHT22;5508;49.150;11.030;2023-08-06T02:26:40;13.00;99.90
10911;DHT22;5508;49.150;11.030;2023-08-06T02:29:40;13.00;99.90
10911;DHT22;5508;49.150;11.030;2023-08-06T02:32:41;13.10;99.90
10911;DHT22;5508;49.150;11.030;2023-08-06T02:35:42;13.00;99.90
10911;DHT22;5508;49.150;11.030;2023-08-06T02:38:43;13.00;99.90
10911;DHT22;5508;49.150;11.030;2023-08-06T02:41:43;13.00;99.90
10911;DHT22;5508;49.150;11.030;2023-08-06T02:44:44;12.90;99.90
10911;DHT22;5508;49.150;11.030;2023-08-06T02:47:44;12.80;99.90
10911;DHT22;5508;49.150;11.030;2023-08-06T02:50:45;12.80;99.90
10911;DHT22;5508;49.150;11.030;2023-08-06T02:53:47;12.90;99.90
10911;DHT22;5508;49.150;11.030;2023-08-06T02:56:47;12.80;99.90
10911;DHT22;5508;49.150;11.030;2023-08-06T02:59:48;12.80;99.90
10911;DHT22;5508;49.150;11.030;2023-08-06T03:02:49;12.80;99.90
10911;DHT22;5508;49.150;11.030;2023-08-06T03:05:53;12.80;99.90
10911;DHT22;5508;49.150;11.030;2023-08-06T03:08:54;12.80;99.90
10911;DHT22;5508;49.150;11.030;2023-08-06T03:11:54;12.70;99.90
10911;DHT22;5508;49.150;11.030;2023-08-06T03:14:55;12.70;99.90
10911;DHT22;5508;49.150;11.030;2023-08-06T03:17:56;12.60;99.90
10911;DHT22;5508;49.150;11.030;2023-08-06T03:20:56;12.50;99.90
10911;DHT22;5508;49.150;11.030;2023-08-06T03:23:57;12.50;99.90
10911;DHT22;5508;49.150;11.030;2023-08-06T03:26:57;12.40;99.90
10911;DHT22;5508;49.150;11.030;2023-08-06T03:29:58;12.40;99.90
10911;DHT22;5508;49.150;11.030;2023-08-06T03:33:01;12.20;99.90
10911;DHT22;5508;49.150;11.030;2023-08-06T03:36:02;12.10;99.90
10911;DHT22;5508;49.150;11.030;2023-08-06T03:39:02;12.10;99.90
10911;DHT22;5508;49.150;11.030;2023-08-06T03:42:03;12.00;99.90
10911;DHT22;5508;49.150;11.030;2023-08-06T03:45:04;12.00;99.90
10911;DHT22;5508;49.150;11.030;2023-08-06T03:48:05;12.00;99.90
10911;DHT22;5508;49.150;11.030;2023-08-06T03:51:05;12.00;99.90
10911;DHT22;5508;49.150;11.030;2023-08-06T03:54:06;11.90;99.90
10911;DHT22;5508;49.150;11.030;2023-08-06T03:57:07;11.90;99.90
10911;DHT22;5508;49.150;11.030;2023-08-06T04:00:08;11.80;99.90
10911;DHT22;5508;49.150;11.030;2023-08-06T04:03:08;11.80;99.90
10911;DHT22;5508;49.150;11.030;2023-08-06T04:06:09;11.80;99.90
10911;DHT22;5508;49.150;11.030;2023-08-06T04:09:10;11.80;99.90
10911;DHT22;5508;49.150;11.030;2023-08-06T04:12:10;11.70;99.90
10911;DHT22;5508;49.150;11.030;2023-08-06T04:15:11;11.60;99.90
10911;DHT22;5508;49.150;11.030;2023-08-06T04:18:11;11.60;99.90
10911;DHT22;5508;49.150;11.030;2023-08-06T04:21:12;11.50;99.90
10911;DHT22;5508;49.150;11.030;2023-08-06T04:24:12;11.50;99.90
10911;DHT22;5508;49.150;11.030;2023-08-06T04:27:14;11.50;99.90
10911;DHT22;5508;49.150;11.030;2023-08-06T04:30:15;11.50;99.90
10911;DHT22;5508;49.150;11.030;2023-08-06T04:33:15;11.50;99.90
10911;DHT22;5508;49.150;11.030;2023-08-06T04:36:16;11.50;99.90
10911;DHT22;5508;49.150;11.030;2023-08-06T04:39:17;11.50;99.90
10911;DHT22;5508;49.150;11.030;2023-08-06T04:42:17;11.60;99.90
10911;DHT22;5508;49.150;11.030;2023-08-06T04:45:18;11.70;99.90
10911;DHT22;5508;49.150;11.030;2023-08-06T04:48:18;11.70;99.90
10911;DHT22;5508;49.150;11.030;2023-08-06T04:51:19;11.70;99.90
10911;DHT22;5508;49.150;11.030;2023-08-06T04:54:20;11.80;99.90
10911;DHT22;5508;49.150;11.030;2023-08-06T04:57:21;11.80;99.90
10911;DHT22;5508;49.150;11.030;2023-08-06T05:00:21;11.90;99.90
10911;DHT22;5508;49.150;11.030;2023-08-06T05:03:22;12.00;99.90
10911;DHT22;5508;49.150;11.030;2023-08-06T05:06:23;12.10;99.90
10911;DHT22;5508;49.150;11.030;2023-08-06T05:09:23;12.20;99.90
10911;DHT22;5508;49.150;11.030;2023-08-06T05:12:24;12.50;99.90
10911;DHT22;5508;49.150;11.030;2023-08-06T05:15:25;12.70;99.90
10911;DHT22;5508;49.150;11.030;2023-08-06T05:18:28;12.90;99.90
10911;DHT22;5508;49.150;11.030;2023-08-06T05:21:29;13.00;99.90
10911;DHT22;5508;49.150;11.030;2023-08-06T05:24:29;13.10;99.90
10911;DHT22;5508;49.150;11.030;2023-08-06T05:27:30;13.10;99.90
10911;DHT22;5508;49.150;11.030;2023-08-06T05:30:30;13.30;99.90
10911;DHT22;5508;49.150;11.030;2023-08-06T05:33:31;13.40;99.90
10911;DHT22;5508;49.150;11.030;2023-08-06T05:36:31;13.50;99.90
10911;DHT22;5508;49.150;11.030;2023-08-06T05:39:32;13.50;99.90
10911;DHT22;5508;49.150;11.030;2023-08-06T05:42:33;13.70;99.90
10911;DHT22;5508;49.150;11.030;2023-08-06T05:45:33;14.00;99.90
10911;DHT22;5508;49.150;11.030;2023-08-06T05:48:34;14.20;99.90
10911;DHT22;5508;49.150;11.030;2023-08-06T05:51:34;14.30;99.90
10911;DHT22;5508;49.150;11.030;2023-08-06T05:54:35;14.20;99.90
10911;DHT22;5508;49.150;11.030;2023-08-06T05:57:36;14.10;99.90
10911;DHT22;5508;49.150;11.030;2023-08-06T06:00:36;14.00;99.90
10911;DHT22;5508;49.150;11.030;2023-08-06T06:03:37;14.10;99.90
10911;DHT22;5508;49.150;11.030;2023-08-06T06:06:37;14.20;99.90
10911;DHT22;5508;49.150;11.030;2023-08-06T06:09:38;14.20;99.90
10911;DHT22;5508;49.150;11.030;2023-08-06T06:12:40;14.20;99.90
10911;DHT22;5508;49.150;11.030;2023-08-06T06:15:41;14.10;99.90
10911;DHT22;5508;49.150;11.030;2023-08-06T06:18:41;14.10;99.90
10911;DHT22;5508;49.150;11.030;2023-08-06T06:21:42;14.00;99.90
10911;DHT22;5508;49.150;11.030;2023-08-06T06:24:43;13.90;99.90
10911;DHT22;5508;49.150;11.030;2023-08-06T06:27:43;14.00;99.90
10911;DHT22;5508;49.150;11.030;2023-08-06T06:30:44;14.10;99.90
10911;DHT22;5508;49.150;11.030;2023-08-06T06:33:44;14.10;99.90
10911;DHT22;5508;49.150;11.030;2023-08-06T06:36:45;14.10;99.90
10911;DHT22;5508;49.150;11.030;2023-08-06T06:39:45;14.10;99.90
10911;DHT22;5508;49.150;11.030;2023-08-06T06:42:46;14.10;99.90
10911;DHT22;5508;49.150;11.030;2023-08-06T06:45:47;14.20;99.90
10911;DHT22;5508;49.150;11.030;2023-08-06T06:48:47;14.30;99.90
10911;DHT22;5508;49.150;11.030;2023-08-06T06:51:48;14.30;99.90
10911;DHT22;5508;49.150;11.030;2023-08-06T06:54:48;14.50;99.90
10911;DHT22;5508;49.150;11.030;2023-08-06T06:57:49;14.60;99.90
10911;DHT22;5508;49.150;11.030;2023-08-06T07:00:49;14.80;99.90
10911;DHT22;5508;49.150;11.030;2023-08-06T07:03:50;15.00;99.90
10911;DHT22;5508;49.150;11.030;2023-08-06T07:06:51;15.10;99.90
10911;DHT22;5508;49.150;11.030;2023-08-06T07:09:52;15.30;99.90
10911;DHT22;5508;49.150;11.030;2023-08-06T07:12:53;15.40;99.90
10911;DHT22;5508;49.150;11.030;2023-08-06T07:15:54;15.70;99.90
10911;DHT22;5508;49.150;11.030;2023-08-06T07:18:55;15.70;99.90
10911;DHT22;5508;49.150;11.030;2023-08-06T07:21:56;15.50;99.90
10911;DHT22;5508;49.150;11.030;2023-08-06T07:24:56;15.40;99.90
10911;DHT22;5508;49.150;11.030;2023-08-06T07:27:57;15.40;99.90
10911;DHT22;5508;49.150;11.030;2023-08-06T07:30:58;15.40;99.90
10911;DHT22;5508;49.150;11.030;2023-08-06T07:33:58;15.30;99.90
10911;DHT22;5508;49.150;11.030;2023-08-06T07:36:59;15.20;99.90
10911;DHT22;5508;49.150;11.030;2023-08-06T07:40:00;14.70;99.90
10911;DHT22;5508;49.150;11.030;2023-08-06T07:43:00;14.30;99.90
10911;DHT22;5508;49.150;11.030;2023-08-06T07:46:01;14.10;99.90
10911;DHT22;5508;49.150;11.030;2023-08-06T07:49:02;14.00;99.90
10911;DHT22;5508;49.150;11.030;2023-08-06T07:52:03;14.10;99.90
10911;DHT22;5508;49.150;11.030;2023-08-06T07:55:04;14.10;99.90
10911;DHT22;5508;49.150;11.030;2023-08-06T07:58:05;14.40;99.90
10911;DHT22;5508;49.150;11.030;2023-08-06T08:01:06;14.40;99.90
10911;DHT22;5508;49.150;11.030;2023-08-06T08:04:07;14.50;99.90
10911;DHT22;5508;49.150;11.030;2023-08-06T08:07:09;14.60;99.90
10911;DHT22;5508;49.150;11.030;2023-08-06T08:10:10;14.70;99.90
10911;DHT22;5508;49.150;11.030;2023-08-06T08:13:11;14.70;99.90
10911;DHT22;5508;49.150;11.030;2023-08-06T08:16:11;15.00;99.90
10911;DHT22;5508;49.150;11.030;2023-08-06T08:19:12;15.00;99.90
10911;DHT22;5508;49.150;11.030;2023-08-06T08:22:12;15.30;99.90
10911;DHT22;5508;49.150;11.030;2023-08-06T08:25:13;15.50;99.90
10911;DHT22;5508;49.150;11.030;2023-08-06T08:28:14;15.40;99.90
10911;DHT22;5508;49.150;11.030;2023-08-06T08:31:14;15.50;99.90
10911;DHT22;5508;49.150;11.030;2023-08-06T08:34:17;15.30;99.90
10911;DHT22;5508;49.150;11.030;2023-08-06T08:37:18;15.20;99.90
10911;DHT22;5508;49.150;11.030;2023-08-06T08:40:19;14.80;99.90
10911;DHT22;5508;49.150;11.030;2023-08-06T08:43:23;14.60;99.90
10911;DHT22;5508;49.150;11.030;2023-08-06T08:46:25;14.60;99.90
10911;DHT22;5508;49.150;11.030;2023-08-06T08:49:27;15.00;99.90
10911;DHT22;5508;49.150;11.030;2023-08-06T08:52:31;15.20;99.90
10911;DHT22;5508;49.150;11.030;2023-08-06T08:55:32;15.40;99.90
10911;DHT22;5508;49.150;11.030;2023-08-06T08:58:33;15.30;99.90
10911;DHT22;5508;49.150;11.030;2023-08-06T09:01:34;15.10;99.90
10911;DHT22;5508;49.150;11.030;2023-08-06T09:04:35;14.80;99.90
10911;DHT22;5508;49.150;11.030;2023-08-06T09:07:42;14.50;99.90
10911;DHT22;5508;49.150;11.030;2023-08-06T09:10:48;14.20;99.90
10911;DHT22;5508;49.150;11.030;2023-08-06T09:13:49;14.30;99.90
10911;DHT22;5508;49.150;11.030;2023-08-06T09:16:49;14.20;99.90
10911;DHT22;5508;49.150;11.030;2023-08-06T09:19:50;14.10;99.90
10911;DHT22;5508;49.150;11.030;2023-08-06T09:22:54;14.00;99.90
10911;DHT22;5508;49.150;11.030;2023-08-06T09:25:55;13.80;99.90
10911;DHT22;5508;49.150;11.030;2023-08-06T09:28:55;13.80;99.90
10911;DHT22;5508;49.150;11.030;2023-08-06T09:32:00;13.60;99.90
10911;DHT22;5508;49.150;11.030;2023-08-06T09:35:00;13.40;99.90
10911;DHT22;5508;49.150;11.030;2023-08-06T09:38:08;13.40;99.90
10911;DHT22;5508;49.150;11.030;2023-08-06T09:41:09;13.50;99.90
10911;DHT22;5508;49.150;11.030;2023-08-06T09:44:17;13.60;99.90
10911;DHT22;5508;49.150;11.030;2023-08-06T09:47:18;13.60;99.90
10911;DHT22;5508;49.150;11.030;2023-08-06T09:50:20;13.60;99.90
10911;DHT22;5508;49.150;11.030;2023-08-06T09:53:22;13.80;99.90
10911;DHT22;5508;49.150;11.030;2023-08-06T09:56:23;13.80;99.90
10911;DHT22;5508;49.150;11.030;2023-08-06T09:59:27;13.90;99.90
10911;DHT22;5508;49.150;11.030;2023-08-06T10:02:27;14.10;99.90
10911;DHT22;5508;49.150;11.030;2023-08-06T10:05:29;14.10;99.90
10911;DHT22;5508;49.150;11.030;2023-08-06T10:08:31;14.30;99.90
10911;DHT22;5508;49.150;11.030;2023-08-06T10:11:33;14.60;99.90
10911;DHT22;5508;49.150;11.030;2023-08-06T10:14:35;14.60;99.90
10911;DHT22;5508;49.150;11.030;2023-08-06T10:17:37;14.60;99.90
10911;DHT22;5508;49.150;11.030;2023-08-06T10:20:39;14.40;99.90
10911;DHT22;5508;49.150;11.030;2023-08-06T10:23:40;14.30;99.90
10911;DHT22;5508;49.150;11.030;2023-08-06T10:26:44;14.10;99.90
10911;DHT22;5508;49.150;11.030;2023-08-06T10:29:44;14.20;99.90
10911;DHT22;5508;49.150;11.030;2023-08-06T10:32:55;14.30;99.90
10911;DHT22;5508;49.150;11.030;2023-08-06T10:36:01;14.90;99.90
10911;DHT22;5508;49.150;11.030;2023-08-06T10:39:02;15.00;99.90
10911;DHT22;5508;49.150;11.030;2023-08-06T10:42:04;15.50;99.90
10911;DHT22;5508;49.150;11.030;2023-08-06T10:45:18;15.50;99.90
10911;DHT22;5508;49.150;11.030;2023-08-06T10:48:40;15.70;99.90
10911;DHT22;5508;49.150;11.030;2023-08-06T10:51:41;15.80;99.90
10911;DHT22;5508;49.150;11.030;2023-08-06T11:02:39;15.30;99.90
10911;DHT22;5508;49.150;11.030;2023-08-06T11:05:39;15.00;99.90
10911;DHT22;5508;49.150;11.030;2023-08-06T11:08:42;14.80;99.90
10911;DHT22;5508;49.150;11.030;2023-08-06T11:11:47;14.80;99.90
10911;DHT22;5508;49.150;11.030;2023-08-06T11:14:50;14.60;99.90
10911;DHT22;5508;49.150;11.030;2023-08-06T11:17:51;14.50;99.90
10911;DHT22;5508;49.150;11.030;2023-08-06T11:20:52;15.00;99.90
10911;DHT22;5508;49.150;11.030;2023-08-06T11:23:53;15.50;99.90
10911;DHT22;5508;49.150;11.030;2023-08-06T11:26:53;15.50;99.90
10911;DHT22;5508;49.150;11.030;2023-08-06T11:29:54;15.30;99.90
10911;DHT22;5508;49.150;11.030;2023-08-06T11:32:56;15.20;99.90
10911;DHT22;5508;49.150;11.030;2023-08-06T11:35:58;15.10;99.90
10911;DHT22;5508;49.150;11.030;2023-08-06T11:39:00;15.20;99.90
10911;DHT22;5508;49.150;11.030;2023-08-06T11:42:03;14.60;99.90
10911;DHT22;5508;49.150;11.030;2023-08-06T11:45:04;14.60;99.90
10911;DHT22;5508;49.150;11.030;2023-08-06T11:48:06;14.70;99.90
10911;DHT22;5508;49.150;11.030;2023-08-06T11:51:12;14.60;99.90
10911;DHT22;5508;49.150;11.030;2023-08-06T11:54:15;14.80;99.90
10911;DHT22;5508;49.150;11.030;2023-08-06T11:57:16;15.00;99.90
10911;DHT22;5508;49.150;11.030;2023-08-06T12:00:16;15.10;99.90
10911;DHT22;5508;49.150;11.030;2023-08-06T12:03:19;15.20;99.90
10911;DHT22;5508;49.150;11.030;2023-08-06T12:06:19;15.50;99.90
10911;DHT22;5508;49.150;11.030;2023-08-06T12:09:20;15.50;99.90
10911;DHT22;5508;49.150;11.030;2023-08-06T12:12:21;15.50;99.90
10911;DHT22;5508;49.150;11.030;2023-08-06T12:15:22;15.50;99.90
10911;DHT22;5508;49.150;11.030;2023-08-06T12:18:23;15.30;99.90
10911;DHT22;5508;49.150;11.030;2023-08-06T12:21:24;15.30;99.90
10911;DHT22;5508;49.150;11.030;2023-08-06T12:24:25;15.80;99.90
10911;DHT22;5508;49.150;11.030;2023-08-06T12:27:25;16.10;99.90
10911;DHT22;5508;49.150;11.030;2023-08-06T12:30:26;15.80;99.90
10911;DHT22;5508;49.150;11.030;2023-08-06T12:33:26;15.60;99.90
10911;DHT22;5508;49.150;11.030;2023-08-06T12:36:27;15.50;99.90
10911;DHT22;5508;49.150;11.030;2023-08-06T12:39:27;15.20;99.90
10911;DHT22;5508;49.150;11.030;2023-08-06T12:42:28;15.00;99.90
10911;DHT22;5508;49.150;11.030;2023-08-06T12:45:29;14.60;99.90
10911;DHT22;5508;49.150;11.030;2023-08-06T12:48:30;14.70;99.90
10911;DHT22;5508;49.150;11.030;2023-08-06T12:51:31;14.80;99.90
10911;DHT22;5508;49.150;11.030;2023-08-06T12:54:34;15.10;99.90
10911;DHT22;5508;49.150;11.030;2023-08-06T12:57:37;15.20;99.90
10911;DHT22;5508;49.150;11.030;2023-08-06T13:00:38;15.50;99.90
10911;DHT22;5508;49.150;11.030;2023-08-06T13:03:39;15.70;99.90
10911;DHT22;5508;49.150;11.030;2023-08-06T13:06:39;16.10;98.60
10911;DHT22;5508;49.150;11.030;2023-08-06T13:09:40;15.90;97.60
10911;DHT22;5508;49.150;11.030;2023-08-06T13:12:41;15.40;95.40
10911;DHT22;5508;49.150;11.030;2023-08-06T13:15:41;15.60;96.50
10911;DHT22;5508;49.150;11.030;2023-08-06T13:18:42;15.20;98.00
10911;DHT22;5508;49.150;11.030;2023-08-06T13:24:52;15.30;97.70
10911;DHT22;5508;49.150;11.030;2023-08-06T13:27:53;15.20;94.70
10911;DHT22;5508;49.150;11.030;2023-08-06T13:30:55;15.10;97.60
10911;DHT22;5508;49.150;11.030;2023-08-06T13:33:56;15.30;98.50
10911;DHT22;5508;49.150;11.030;2023-08-06T13:36:58;15.10;97.80
10911;DHT22;5508;49.150;11.030;2023-08-06T13:39:58;14.70;99.30
10911;DHT22;5508;49.150;11.030;2023-08-06T13:42:59;15.00;99.40
10911;DHT22;5508;49.150;11.030;2023-08-06T13:46:00;14.80;98.90
10911;DHT22;5508;49.150;11.030;2023-08-06T13:49:00;14.70;99.90
10911;DHT22;5508;49.150;11.030;2023-08-06T13:52:01;14.70;99.90
10911;DHT22;5508;49.150;11.030;2023-08-06T13:55:02;14.30;99.90
10911;DHT22;5508;49.150;11.030;2023-08-06T13:58:04;14.10;99.90
10911;DHT22;5508;49.150;11.030;2023-08-06T14:01:05;13.90;99.90
10911;DHT22;5508;49.150;11.030;2023-08-06T14:04:05;14.00;99.90
10911;DHT22;5508;49.150;11.030;2023-08-06T14:07:06;13.80;99.90
10911;DHT22;5508;49.150;11.030;2023-08-06T14:10:07;13.80;99.90
10911;DHT22;5508;49.150;11.030;2023-08-06T14:13:09;13.70;99.90
10911;DHT22;5508;49.150;11.030;2023-08-06T14:16:10;13.60;99.90
10911;DHT22;5508;49.150;11.030;2023-08-06T14:19:10;13.60;99.90
10911;DHT22;5508;49.150;11.030;2023-08-06T14:22:11;13.70;99.90
10911;DHT22;5508;49.150;11.030;2023-08-06T14:25:11;13.90;99.90
10911;DHT22;5508;49.150;11.030;2023-08-06T14:28:12;13.80;99.90
10911;DHT22;5508;49.150;11.030;2023-08-06T14:31:12;13.70;99.90
10911;DHT22;5508;49.150;11.030;2023-08-06T14:34:13;13.60;99.90
10911;DHT22;5508;49.150;11.030;2023-08-06T14:37:14;13.50;99.90
10911;DHT22;5508;49.150;11.030;2023-08-06T14:40:14;13.50;99.90
10911;DHT22;5508;49.150;11.030;2023-08-06T14:43:15;13.40;99.90
10911;DHT22;5508;49.150;11.030;2023-08-06T14:46:16;13.20;99.90
10911;DHT22;5508;49.150;11.030;2023-08-06T14:49:17;13.10;99.90
10911;DHT22;5508;49.150;11.030;2023-08-06T14:52:18;13.10;99.90
10911;DHT22;5508;49.150;11.030;2023-08-06T14:55:25;13.00;99.90
10911;DHT22;5508;49.150;11.030;2023-08-06T14:58:26;13.10;99.90
10911;DHT22;5508;49.150;11.030;2023-08-06T15:01:27;13.20;99.90
10911;DHT22;5508;49.150;11.030;2023-08-06T15:04:27;13.10;99.90
10911;DHT22;5508;49.150;11.030;2023-08-06T15:07:28;13.20;99.90
10911;DHT22;5508;49.150;11.030;2023-08-06T15:10:31;13.30;99.90
10911;DHT22;5508;49.150;11.030;2023-08-06T15:13:31;13.40;99.90
10911;DHT22;5508;49.150;11.030;2023-08-06T15:16:33;13.40;99.90
10911;DHT22;5508;49.150;11.030;2023-08-06T15:19:34;13.50;99.90
10911;DHT22;5508;49.150;11.030;2023-08-06T15:22:35;13.60;99.90
10911;DHT22;5508;49.150;11.030;2023-08-06T15:25:35;13.60;99.90
10911;DHT22;5508;49.150;11.030;2023-08-06T15:28:36;13.70;99.90
10911;DHT22;5508;49.150;11.030;2023-08-06T15:31:39;13.90;99.90
10911;DHT22;5508;49.150;11.030;2023-08-06T15:34:40;14.10;99.90
10911;DHT22;5508;49.150;11.030;2023-08-06T15:37:41;14.20;99.50
10911;DHT22;5508;49.150;11.030;2023-08-06T15:40:41;14.20;99.20
10911;DHT22;5508;49.150;11.030;2023-08-06T15:43:44;14.40;96.60
10911;DHT22;5508;49.150;11.030;2023-08-06T15:46:45;14.40;96.30
10911;DHT22;5508;49.150;11.030;2023-08-06T15:49:46;14.50;98.90
10911;DHT22;5508;49.150;11.030;2023-08-06T15:52:46;14.40;95.70
10911;DHT22;5508;49.150;11.030;2023-08-06T15:55:47;14.20;96.00
10911;DHT22;5508;49.150;11.030;2023-08-06T15:58:47;14.10;97.70
10911;DHT22;5508;49.150;11.030;2023-08-06T16:01:48;14.20;98.50
10911;DHT22;5508;49.150;11.030;2023-08-06T16:04:49;14.10;98.10
10911;DHT22;5508;49.150;11.030;2023-08-06T16:07:50;14.10;98.40
10911;DHT22;5508;49.150;11.030;2023-08-06T16:10:51;14.00;99.30
10911;DHT22;5508;49.150;11.030;2023-08-06T16:13:51;13.90;99.90
10911;DHT22;5508;49.150;11.030;2023-08-06T16:16:52;13.80;99.90
10911;DHT22;5508;49.150;11.030;2023-08-06T16:19:52;13.80;99.90
10911;DHT22;5508;49.150;11.030;2023-08-06T16:22:53;13.60;99.90
10911;DHT22;5508;49.150;11.030;2023-08-06T16:25:54;13.60;99.90
10911;DHT22;5508;49.150;11.030;2023-08-06T16:28:54;13.60;99.90
10911;DHT22;5508;49.150;11.030;2023-08-06T16:31:55;13.70;99.90
10911;DHT22;5508;49.150;11.030;2023-08-06T16:34:57;13.80;99.90
10911;DHT22;5508;49.150;11.030;2023-08-06T16:37:58;14.00;98.70
10911;DHT22;5508;49.150;11.030;2023-08-06T16:40:59;14.00;98.90
10911;DHT22;5508;49.150;11.030;2023-08-06T16:44:00;14.00;96.60
10911;DHT22;5508;49.150;11.030;2023-08-06T16:47:01;13.90;96.40
10911;DHT22;5508;49.150;11.030;2023-08-06T16:50:02;14.00;97.50
10911;DHT22;5508;49.150;11.030;2023-08-06T16:53:02;13.90;97.00
10911;DHT22;5508;49.150;11.030;2023-08-06T16:56:03;13.80;97.00
10911;DHT22;5508;49.150;11.030;2023-08-06T16:59:04;13.80;97.10
10911;DHT22;5508;49.150;11.030;2023-08-06T17:02:05;13.70;96.10
10911;DHT22;5508;49.150;11.030;2023-08-06T17:05:06;13.60;96.20
10911;DHT22;5508;49.150;11.030;2023-08-06T17:08:07;13.70;98.30
10911;DHT22;5508;49.150;11.030;2023-08-06T17:11:07;13.60;96.50
10911;DHT22;5508;49.150;11.030;2023-08-06T17:14:08;13.60;97.60
10911;DHT22;5508;49.150;11.030;2023-08-06T17:17:10;13.50;98.50
10911;DHT22;5508;49.150;11.030;2023-08-06T17:20:11;13.50;99.30
10911;DHT22;5508;49.150;11.030;2023-08-06T17:23:11;13.40;99.30
10911;DHT22;5508;49.150;11.030;2023-08-06T17:26:12;13.40;99.90
10911;DHT22;5508;49.150;11.030;2023-08-06T17:29:12;13.40;98.30
10911;DHT22;5508;49.150;11.030;2023-08-06T17:32:13;13.30;99.30
10911;DHT22;5508;49.150;11.030;2023-08-06T17:35:14;13.40;99.80
10911;DHT22;5508;49.150;11.030;2023-08-06T17:38:15;13.30;99.90
10911;DHT22;5508;49.150;11.030;2023-08-06T17:41:16;13.10;99.90
10911;DHT22;5508;49.150;11.030;2023-08-06T17:44:16;12.90;99.90
10911;DHT22;5508;49.150;11.030;2023-08-06T17:47:17;12.80;99.90
10911;DHT22;5508;49.150;11.030;2023-08-06T17:50:18;12.90;99.90
10911;DHT22;5508;49.150;11.030;2023-08-06T17:53:18;12.80;99.90
10911;DHT22;5508;49.150;11.030;2023-08-06T17:56:19;12.70;99.90
10911;DHT22;5508;49.150;11.030;2023-08-06T17:59:19;12.70;99.90
10911;DHT22;5508;49.150;11.030;2023-08-06T18:02:20;12.70;99.90
10911;DHT22;5508;49.150;11.030;2023-08-06T18:05:21;12.70;99.90
10911;DHT22;5508;49.150;11.030;2023-08-06T18:08:22;12.70;99.90
10911;DHT22;5508;49.150;11.030;2023-08-06T18:11:22;12.70;99.90
10911;DHT22;5508;49.150;11.030;2023-08-06T18:14:23;12.70;99.90
10911;DHT22;5508;49.150;11.030;2023-08-06T18:17:23;12.70;99.90
10911;DHT22;5508;49.150;11.030;2023-08-06T18:20:24;12.80;99.90
10911;DHT22;5508;49.150;11.030;2023-08-06T18:23:25;12.80;99.90
10911;DHT22;5508;49.150;11.030;2023-08-06T18:26:25;12.70;99.90
10911;DHT22;5508;49.150;11.030;2023-08-06T18:29:26;12.60;99.90
10911;DHT22;5508;49.150;11.030;2023-08-06T18:32:26;12.50;99.90
10911;DHT22;5508;49.150;11.030;2023-08-06T18:35:27;12.50;99.90
10911;DHT22;5508;49.150;11.030;2023-08-06T18:38:27;12.40;99.90
10911;DHT22;5508;49.150;11.030;2023-08-06T18:41:28;12.40;99.90
10911;DHT22;5508;49.150;11.030;2023-08-06T18:44:28;12.40;99.90
10911;DHT22;5508;49.150;11.030;2023-08-06T18:47:30;12.40;99.90
10911;DHT22;5508;49.150;11.030;2023-08-06T18:50:30;12.30;99.90
10911;DHT22;5508;49.150;11.030;2023-08-06T18:53:35;12.30;99.90
10911;DHT22;5508;49.150;11.030;2023-08-06T18:56:36;12.20;99.90
10911;DHT22;5508;49.150;11.030;2023-08-06T18:59:36;12.20;99.90
10911;DHT22;5508;49.150;11.030;2023-08-06T19:02:37;12.20;99.90
10911;DHT22;5508;49.150;11.030;2023-08-06T19:05:39;12.00;99.90
10911;DHT22;5508;49.150;11.030;2023-08-06T19:08:40;11.90;99.90
10911;DHT22;5508;49.150;11.030;2023-08-06T19:11:40;11.90;99.90
10911;DHT22;5508;49.150;11.030;2023-08-06T19:14:41;11.90;99.90
10911;DHT22;5508;49.150;11.030;2023-08-06T19:17:42;11.80;99.90